Impacts TAF Board
For situational awareness. Not to be used for flight planning purposes.
IDs:

KCLE - Cleveland/Hopkins In, OH, US

Issued at 0520 UTC 22 Oct 2021
Updated at 0542 UTC 22 Oct 2021
Potential Impact None Slight Moderate High
Time0451Z 22/06Z 22/07Z 22/08Z 22/09Z 22/10Z 22/11Z 22/12Z 22/13Z 22/14Z 22/15Z 22/16Z 22/17Z 22/18Z>>
Type OBS PRVL PRVL PRVL PRVL PRVL PRVL PRVL PRVL PRVL PRVL PRVL PRVL PRVL
VIS 10 >6 >6 >6 >6 >6 >6 >6 >6 >6 >6 >6 >6 >6
CIG 18 15 15 15 15 15 20 20 20 20 20 20 20 20
Cover OVC OVC OVC OVC OVC OVC BKN BKN BKN BKN BKN BKN BKN BKN
FltCat MVFR MVFR MVFR MVFR MVFR MVFR MVFR MVFR MVFR MVFR MVFR MVFR MVFR MVFR
WX -- -SHRA -SHRA -SHRA -SHRA -SHRA -- -- -- -- -- -- -- --
WDir 250 260 260 340 340 340 340 340 340 340 340 340 340 340
WSpd 10 10 10 11 11 11 10 10 10 10 10 10 10 10
WGst -- -- -- -- -- -- -- -- -- -- -- -- -- --
Raw TAF
KCLE 220520Z 2206/2312 26010KT P6SM -SHRA OVC015
  FM220800 34011KT P6SM -SHRA OVC015
  FM221100 34010KT P6SM BKN020
  FM222200 VRB04KT P6SM BKN020
  FM230900 VRB04KT P6SM -SHRA OVC020


Raw METAR
KCLE 220451Z 25010KT 10SM OVC018 12/08 A2989 RMK AO2 SLP136 T01170078 401780111
KCLE 220351Z 25012KT 10SM OVC020 11/08 A2989 RMK AO2 SLP136 T01110078
KCLE 220251Z 25012KT 10SM BKN024 OVC032 12/07 A2988 RMK AO2 SLP132 T01220072 53010
KCLE 220238Z 26012KT 10SM BKN027 OVC036 12/07 A2987 RMK AO2 T01220072

METAR Board
Radar Display
Forecast Discussion
For situational awareness. Not to be used for flight planning purposes.